sensor_id;sensor_type;location;lat;lon;timestamp;pressure;altitude;pressure_sealevel;temperature;humidity
61900;BME280;47853;55.890;37.664;2022-08-25T00:00:40;100417.94;;;23.48;41.83
61900;BME280;47853;55.890;37.664;2022-08-25T00:10:51;100383.03;;;23.39;42.12
61900;BME280;47853;55.890;37.664;2022-08-25T00:13:16;100432.03;;;23.56;42.15
61900;BME280;47853;55.890;37.664;2022-08-25T00:15:42;100413.13;;;23.50;42.03
61900;BME280;47853;55.890;37.664;2022-08-25T00:18:21;100420.53;;;23.24;43.46
61900;BME280;47853;55.890;37.664;2022-08-25T00:21:06;100407.03;;;22.80;45.28
61900;BME280;47853;55.890;37.664;2022-08-25T00:23:58;100434.75;;;22.75;45.53
61900;BME280;47853;55.890;37.664;2022-08-25T00:26:24;100441.75;;;22.64;46.02
61900;BME280;47853;55.890;37.664;2022-08-25T00:28:49;100403.16;;;22.43;45.23
61900;BME280;47853;55.890;37.664;2022-08-25T00:31:42;100434.41;;;22.71;45.67
61900;BME280;47853;55.890;37.664;2022-08-25T00:34:12;100414.75;;;22.25;46.67
61900;BME280;47853;55.890;37.664;2022-08-25T00:36:38;100407.25;;;22.27;45.86
61900;BME280;47853;55.890;37.664;2022-08-25T00:39:05;100421.22;;;22.24;46.22
61900;BME280;47853;55.890;37.664;2022-08-25T00:41:31;100432.78;;;22.06;46.92
61900;BME280;47853;55.890;37.664;2022-08-25T00:43:59;100429.16;;;22.19;47.11
61900;BME280;47853;55.890;37.664;2022-08-25T00:49:17;100424.59;;;21.87;48.26
61900;BME280;47853;55.890;37.664;2022-08-25T00:54:56;100431.78;;;21.68;49.53
61900;BME280;47853;55.890;37.664;2022-08-25T00:57:34;100426.81;;;21.65;48.53
61900;BME280;47853;55.890;37.664;2022-08-25T01:00:04;100399.53;;;21.21;50.21
61900;BME280;47853;55.890;37.664;2022-08-25T01:02:30;100430.34;;;21.59;49.36
61900;BME280;47853;55.890;37.664;2022-08-25T01:04:56;100431.56;;;21.70;48.94
61900;BME280;47853;55.890;37.664;2022-08-25T01:07:21;100427.38;;;21.74;48.38
61900;BME280;47853;55.890;37.664;2022-08-25T01:09:48;100416.56;;;21.74;48.35
61900;BME280;47853;55.890;37.664;2022-08-25T01:12:14;100430.09;;;21.61;48.12
61900;BME280;47853;55.890;37.664;2022-08-25T01:14:40;100429.34;;;21.47;48.27
61900;BME280;47853;55.890;37.664;2022-08-25T01:23:44;100424.75;;;21.54;47.61
61900;BME280;47853;55.890;37.664;2022-08-25T01:32:23;100420.97;;;20.96;49.57
61900;BME280;47853;55.890;37.664;2022-08-25T01:34:49;100393.78;;;20.91;49.15
61900;BME280;47853;55.890;37.664;2022-08-25T01:37:15;100421.63;;;20.71;48.95
61900;BME280;47853;55.890;37.664;2022-08-25T01:39:41;100412.09;;;20.82;49.09
61900;BME280;47853;55.890;37.664;2022-08-25T01:42:36;100421.41;;;21.06;48.11
61900;BME280;47853;55.890;37.664;2022-08-25T01:45:03;100412.19;;;21.21;48.03
61900;BME280;47853;55.890;37.664;2022-08-25T01:47:29;100379.69;;;20.75;48.38
61900;BME280;47853;55.890;37.664;2022-08-25T01:49:55;100407.28;;;20.77;48.89
61900;BME280;47853;55.890;37.664;2022-08-25T01:52:44;100418.75;;;20.86;48.58
61900;BME280;47853;55.890;37.664;2022-08-25T01:55:09;100423.72;;;20.55;48.64
61900;BME280;47853;55.890;37.664;2022-08-25T01:57:35;100387.41;;;20.24;48.98
61900;BME280;47853;55.890;37.664;2022-08-25T02:00:00;100422.47;;;20.45;49.71
61900;BME280;47853;55.890;37.664;2022-08-25T02:02:26;100416.47;;;20.36;49.22
61900;BME280;47853;55.890;37.664;2022-08-25T02:04:51;100418.34;;;20.35;49.66
61900;BME280;47853;55.890;37.664;2022-08-25T02:07:17;100405.44;;;20.24;50.03
61900;BME280;47853;55.890;37.664;2022-08-25T02:09:43;100421.03;;;20.42;50.22
61900;BME280;47853;55.890;37.664;2022-08-25T02:12:08;100414.19;;;20.39;51.23
61900;BME280;47853;55.890;37.664;2022-08-25T02:14:34;100403.59;;;20.38;48.72
61900;BME280;47853;55.890;37.664;2022-08-25T02:17:00;100418.31;;;20.28;49.67
61900;BME280;47853;55.890;37.664;2022-08-25T02:19:25;100410.03;;;20.23;49.90
61900;BME280;47853;55.890;37.664;2022-08-25T02:21:52;100424.97;;;20.19;50.34
61900;BME280;47853;55.890;37.664;2022-08-25T02:24:18;100416.03;;;20.19;50.46
61900;BME280;47853;55.890;37.664;2022-08-25T02:26:44;100417.28;;;20.23;50.59
61900;BME280;47853;55.890;37.664;2022-08-25T02:29:09;100407.94;;;20.05;50.65
61900;BME280;47853;55.890;37.664;2022-08-25T02:31:35;100370.94;;;19.85;50.84
61900;BME280;47853;55.890;37.664;2022-08-25T02:34:02;100417.03;;;19.97;50.79
61900;BME280;47853;55.890;37.664;2022-08-25T02:36:28;100367.41;;;19.65;51.26
61900;BME280;47853;55.890;37.664;2022-08-25T02:38:53;100375.31;;;19.80;51.24
61900;BME280;47853;55.890;37.664;2022-08-25T02:41:21;100404.22;;;20.13;51.65
61900;BME280;47853;55.890;37.664;2022-08-25T02:43:47;100382.00;;;20.04;51.74
61900;BME280;47853;55.890;37.664;2022-08-25T02:46:13;100395.50;;;20.24;51.36
61900;BME280;47853;55.890;37.664;2022-08-25T02:48:39;100420.59;;;20.45;50.71
61900;BME280;47853;55.890;37.664;2022-08-25T02:51:07;100396.13;;;20.40;50.29
61900;BME280;47853;55.890;37.664;2022-08-25T02:53:34;100401.94;;;20.64;50.35
61900;BME280;47853;55.890;37.664;2022-08-25T02:55:59;100392.16;;;20.56;50.20
61900;BME280;47853;55.890;37.664;2022-08-25T02:58:25;100376.75;;;20.77;49.97
61900;BME280;47853;55.890;37.664;2022-08-25T03:00:51;100412.69;;;21.04;49.34
61900;BME280;47853;55.890;37.664;2022-08-25T03:06:45;100413.25;;;21.13;49.25
61900;BME280;47853;55.890;37.664;2022-08-25T03:09:11;100412.44;;;21.12;49.43
61900;BME280;47853;55.890;37.664;2022-08-25T03:11:36;100402.25;;;21.14;49.12
61900;BME280;47853;55.890;37.664;2022-08-25T03:14:02;100414.03;;;21.27;49.03
61900;BME280;47853;55.890;37.664;2022-08-25T03:16:27;100416.94;;;21.32;48.32
61900;BME280;47853;55.890;37.664;2022-08-25T03:18:52;100421.47;;;21.38;48.89
61900;BME280;47853;55.890;37.664;2022-08-25T03:21:18;100414.16;;;21.00;49.48
61900;BME280;47853;55.890;37.664;2022-08-25T03:23:44;100416.19;;;21.05;49.39
61900;BME280;47853;55.890;37.664;2022-08-25T03:26:09;100393.72;;;21.18;48.58
61900;BME280;47853;55.890;37.664;2022-08-25T03:28:35;100417.19;;;21.17;49.22
61900;BME280;47853;55.890;37.664;2022-08-25T03:31:00;100404.09;;;21.27;49.00
61900;BME280;47853;55.890;37.664;2022-08-25T03:33:27;100404.59;;;20.91;49.43
61900;BME280;47853;55.890;37.664;2022-08-25T03:35:55;100415.00;;;20.87;50.09
61900;BME280;47853;55.890;37.664;2022-08-25T03:38:22;100397.34;;;20.64;50.56
61900;BME280;47853;55.890;37.664;2022-08-25T03:40:48;100400.66;;;20.73;50.12
61900;BME280;47853;55.890;37.664;2022-08-25T03:43:14;100403.16;;;20.81;50.01
61900;BME280;47853;55.890;37.664;2022-08-25T03:45:40;100407.94;;;20.66;50.74
61900;BME280;47853;55.890;37.664;2022-08-25T03:48:06;100394.88;;;20.63;50.91
61900;BME280;47853;55.890;37.664;2022-08-25T03:50:31;100401.28;;;20.89;50.67
61900;BME280;47853;55.890;37.664;2022-08-25T03:52:56;100390.50;;;20.82;50.54
61900;BME280;47853;55.890;37.664;2022-08-25T03:55:23;100391.09;;;20.91;51.17
61900;BME280;47853;55.890;37.664;2022-08-25T03:57:51;100407.47;;;21.09;50.97
61900;BME280;47853;55.890;37.664;2022-08-25T04:00:17;100401.75;;;21.31;50.10
61900;BME280;47853;55.890;37.664;2022-08-25T04:02:43;100405.91;;;21.34;50.30
61900;BME280;47853;55.890;37.664;2022-08-25T04:05:09;100398.38;;;21.42;50.15
61900;BME280;47853;55.890;37.664;2022-08-25T04:07:34;100404.03;;;21.34;50.47
61900;BME280;47853;55.890;37.664;2022-08-25T04:10:00;100385.50;;;21.44;50.58
61900;BME280;47853;55.890;37.664;2022-08-25T04:12:25;100400.69;;;21.39;50.98
61900;BME280;47853;55.890;37.664;2022-08-25T04:14:50;100392.78;;;21.37;50.76
61900;BME280;47853;55.890;37.664;2022-08-25T04:17:16;100375.84;;;21.23;50.36
61900;BME280;47853;55.890;37.664;2022-08-25T04:19:41;100378.13;;;21.20;50.94
61900;BME280;47853;55.890;37.664;2022-08-25T04:22:07;100392.34;;;21.47;50.04
61900;BME280;47853;55.890;37.664;2022-08-25T04:24:32;100370.56;;;21.42;49.69
61900;BME280;47853;55.890;37.664;2022-08-25T04:26:58;100378.22;;;21.45;50.43
61900;BME280;47853;55.890;37.664;2022-08-25T04:29:24;100392.31;;;21.54;50.49
61900;BME280;47853;55.890;37.664;2022-08-25T04:31:50;100378.16;;;21.58;50.42
61900;BME280;47853;55.890;37.664;2022-08-25T04:34:17;100386.06;;;21.67;49.67
61900;BME280;47853;55.890;37.664;2022-08-25T04:36:43;100362.50;;;21.74;49.14
61900;BME280;47853;55.890;37.664;2022-08-25T04:39:09;100377.91;;;21.99;49.05
61900;BME280;47853;55.890;37.664;2022-08-25T04:41:34;100360.16;;;21.84;48.89
61900;BME280;47853;55.890;37.664;2022-08-25T04:44:00;100365.13;;;21.87;49.59
61900;BME280;47853;55.890;37.664;2022-08-25T04:46:29;100381.22;;;22.01;49.31
61900;BME280;47853;55.890;37.664;2022-08-25T04:48:56;100356.97;;;21.94;49.64
61900;BME280;47853;55.890;37.664;2022-08-25T04:51:25;100353.31;;;22.07;49.43
61900;BME280;47853;55.890;37.664;2022-08-25T04:53:51;100375.38;;;22.29;49.01
61900;BME280;47853;55.890;37.664;2022-08-25T04:56:20;100363.59;;;22.24;48.63
61900;BME280;47853;55.890;37.664;2022-08-25T04:58:45;100370.97;;;22.60;47.57
61900;BME280;47853;55.890;37.664;2022-08-25T05:01:16;100380.63;;;23.12;46.24
61900;BME280;47853;55.890;37.664;2022-08-25T05:03:42;100385.53;;;23.71;45.19
61900;BME280;47853;55.890;37.664;2022-08-25T05:06:08;100348.44;;;23.04;46.46
61900;BME280;47853;55.890;37.664;2022-08-25T05:08:34;100365.47;;;23.42;45.66
61900;BME280;47853;55.890;37.664;2022-08-25T05:11:07;100371.88;;;23.48;45.42
61900;BME280;47853;55.890;37.664;2022-08-25T05:13:33;100372.13;;;23.58;45.36
61900;BME280;47853;55.890;37.664;2022-08-25T05:16:00;100378.72;;;23.50;45.60
61900;BME280;47853;55.890;37.664;2022-08-25T05:18:27;100371.28;;;23.45;46.10
61900;BME280;47853;55.890;37.664;2022-08-25T05:20:54;100370.50;;;23.87;45.56
61900;BME280;47853;55.890;37.664;2022-08-25T05:23:22;100367.59;;;24.72;43.22
61900;BME280;47853;55.890;37.664;2022-08-25T05:25:48;100352.31;;;25.19;41.82
61900;BME280;47853;55.890;37.664;2022-08-25T05:28:14;100371.69;;;25.52;41.87
61900;BME280;47853;55.890;37.664;2022-08-25T05:30:40;100362.91;;;25.78;40.62
61900;BME280;47853;55.890;37.664;2022-08-25T05:33:07;100371.78;;;26.93;38.41
61900;BME280;47853;55.890;37.664;2022-08-25T05:35:32;100358.81;;;26.44;39.23
61900;BME280;47853;55.890;37.664;2022-08-25T05:37:58;100363.44;;;26.44;38.77
61900;BME280;47853;55.890;37.664;2022-08-25T05:40:25;100354.16;;;27.01;38.04
61900;BME280;47853;55.890;37.664;2022-08-25T05:42:51;100372.59;;;28.26;35.70
61900;BME280;47853;55.890;37.664;2022-08-25T05:45:16;100366.00;;;27.62;36.69
61900;BME280;47853;55.890;37.664;2022-08-25T05:47:42;100346.91;;;27.12;36.71
61900;BME280;47853;55.890;37.664;2022-08-25T05:50:08;100372.56;;;27.39;36.85
61900;BME280;47853;55.890;37.664;2022-08-25T05:52:34;100355.31;;;27.55;36.41
61900;BME280;47853;55.890;37.664;2022-08-25T05:54:59;100371.16;;;27.86;35.93
61900;BME280;47853;55.890;37.664;2022-08-25T05:57:24;100348.00;;;27.61;36.41
61900;BME280;47853;55.890;37.664;2022-08-25T05:59:50;100350.50;;;27.40;36.38
61900;BME280;47853;55.890;37.664;2022-08-25T06:02:15;100356.22;;;28.26;36.27
61900;BME280;47853;55.890;37.664;2022-08-25T06:04:41;100346.53;;;28.51;34.33
61900;BME280;47853;55.890;37.664;2022-08-25T06:07:06;100340.16;;;28.35;35.39
61900;BME280;47853;55.890;37.664;2022-08-25T06:09:31;100339.50;;;29.29;33.34
61900;BME280;47853;55.890;37.664;2022-08-25T06:11:57;100356.50;;;29.42;33.60
61900;BME280;47853;55.890;37.664;2022-08-25T06:14:23;100358.19;;;29.79;33.51
61900;BME280;47853;55.890;37.664;2022-08-25T06:16:48;100354.88;;;30.39;32.23
61900;BME280;47853;55.890;37.664;2022-08-25T06:19:14;100357.22;;;31.48;31.19
61900;BME280;47853;55.890;37.664;2022-08-25T06:21:39;100348.69;;;32.19;29.63
61900;BME280;47853;55.890;37.664;2022-08-25T06:24:06;100356.81;;;31.65;30.03
61900;BME280;47853;55.890;37.664;2022-08-25T06:26:33;100351.66;;;32.22;28.98
61900;BME280;47853;55.890;37.664;2022-08-25T06:28:58;100338.66;;;30.53;31.61
61900;BME280;47853;55.890;37.664;2022-08-25T06:31:24;100357.06;;;32.03;29.62
61900;BME280;47853;55.890;37.664;2022-08-25T06:33:50;100355.59;;;31.81;29.92
61900;BME280;47853;55.890;37.664;2022-08-25T06:36:15;100365.06;;;31.60;29.65
61900;BME280;47853;55.890;37.664;2022-08-25T06:41:56;100355.81;;;32.49;28.13
61900;BME280;47853;55.890;37.664;2022-08-25T06:44:22;100353.53;;;32.81;27.87
61900;BME280;47853;55.890;37.664;2022-08-25T06:46:49;100346.53;;;32.16;28.24
61900;BME280;47853;55.890;37.664;2022-08-25T06:49:14;100328.00;;;31.22;29.32
61900;BME280;47853;55.890;37.664;2022-08-25T06:51:40;100349.44;;;31.95;29.21
61900;BME280;47853;55.890;37.664;2022-08-25T06:54:06;100342.13;;;31.85;28.61
61900;BME280;47853;55.890;37.664;2022-08-25T06:56:32;100344.44;;;31.67;29.41
61900;BME280;47853;55.890;37.664;2022-08-25T06:59:00;100342.22;;;31.69;28.45
61900;BME280;47853;55.890;37.664;2022-08-25T07:01:25;100335.59;;;31.36;29.20
61900;BME280;47853;55.890;37.664;2022-08-25T07:06:33;100336.25;;;32.26;27.86
61900;BME280;47853;55.890;37.664;2022-08-25T07:09:04;100336.69;;;32.39;27.46
61900;BME280;47853;55.890;37.664;2022-08-25T07:11:33;100327.44;;;32.30;27.23
61900;BME280;47853;55.890;37.664;2022-08-25T07:14:10;100335.88;;;31.74;27.96
61900;BME280;47853;55.890;37.664;2022-08-25T07:16:45;100342.03;;;31.61;28.36
61900;BME280;47853;55.890;37.664;2022-08-25T07:19:11;100343.25;;;32.43;26.38
61900;BME280;47853;55.890;37.664;2022-08-25T07:21:39;100324.94;;;32.58;26.47
61900;BME280;47853;55.890;37.664;2022-08-25T07:24:09;100301.41;;;32.95;24.94
61900;BME280;47853;55.890;37.664;2022-08-25T07:26:35;100337.59;;;33.21;25.27
61900;BME280;47853;55.890;37.664;2022-08-25T07:29:16;100330.09;;;33.98;24.18
61900;BME280;47853;55.890;37.664;2022-08-25T07:31:41;100321.53;;;34.00;24.59
61900;BME280;47853;55.890;37.664;2022-08-25T07:34:07;100313.19;;;33.34;25.24
61900;BME280;47853;55.890;37.664;2022-08-25T07:36:32;100332.34;;;33.63;24.37
61900;BME280;47853;55.890;37.664;2022-08-25T07:38:59;100337.41;;;34.36;23.64
61900;BME280;47853;55.890;37.664;2022-08-25T07:41:25;100334.84;;;34.26;23.64
61900;BME280;47853;55.890;37.664;2022-08-25T07:43:50;100332.50;;;34.89;21.97
61900;BME280;47853;55.890;37.664;2022-08-25T07:46:16;100330.69;;;34.70;22.07
61900;BME280;47853;55.890;37.664;2022-08-25T07:48:41;100319.38;;;33.64;24.03
61900;BME280;47853;55.890;37.664;2022-08-25T07:51:09;100316.34;;;34.12;22.35
61900;BME280;47853;55.890;37.664;2022-08-25T07:53:35;100308.22;;;33.55;23.73
61900;BME280;47853;55.890;37.664;2022-08-25T07:56:00;100303.50;;;34.36;22.95
61900;BME280;47853;55.890;37.664;2022-08-25T07:58:25;100295.06;;;33.85;23.04
61900;BME280;47853;55.890;37.664;2022-08-25T08:00:51;100307.88;;;33.43;23.76
61900;BME280;47853;55.890;37.664;2022-08-25T08:03:16;100314.19;;;33.76;23.16
61900;BME280;47853;55.890;37.664;2022-08-25T08:05:41;100308.63;;;34.70;22.61
61900;BME280;47853;55.890;37.664;2022-08-25T08:08:07;100301.88;;;35.73;21.19
61900;BME280;47853;55.890;37.664;2022-08-25T08:10:32;100290.16;;;34.57;21.45
61900;BME280;47853;55.890;37.664;2022-08-25T08:12:58;100292.97;;;35.53;21.31
61900;BME280;47853;55.890;37.664;2022-08-25T08:15:23;100298.56;;;35.39;21.29
61900;BME280;47853;55.890;37.664;2022-08-25T08:17:49;100281.44;;;34.36;22.64
61900;BME280;47853;55.890;37.664;2022-08-25T08:20:17;100287.69;;;35.43;21.47
61900;BME280;47853;55.890;37.664;2022-08-25T08:22:43;100273.81;;;34.75;22.08
61900;BME280;47853;55.890;37.664;2022-08-25T08:25:10;100290.34;;;35.25;21.24
61900;BME280;47853;55.890;37.664;2022-08-25T08:27:36;100290.50;;;34.92;22.32
61900;BME280;47853;55.890;37.664;2022-08-25T08:30:02;100285.16;;;35.10;22.50
61900;BME280;47853;55.890;37.664;2022-08-25T08:32:28;100284.91;;;32.95;24.35
61900;BME280;47853;55.890;37.664;2022-08-25T08:34:53;100269.69;;;32.59;24.72
61900;BME280;47853;55.890;37.664;2022-08-25T08:37:19;100268.16;;;32.48;25.03
61900;BME280;47853;55.890;37.664;2022-08-25T08:39:47;100259.69;;;32.44;24.93
61900;BME280;47853;55.890;37.664;2022-08-25T08:42:16;100282.97;;;31.98;25.56
61900;BME280;47853;55.890;37.664;2022-08-25T08:55:47;100268.09;;;32.53;23.46
61900;BME280;47853;55.890;37.664;2022-08-25T08:58:23;100277.69;;;31.37;25.25
61900;BME280;47853;55.890;37.664;2022-08-25T09:00:54;100250.81;;;31.34;25.36
61900;BME280;47853;55.890;37.664;2022-08-25T09:06:04;100261.56;;;31.31;24.90
61900;BME280;47853;55.890;37.664;2022-08-25T09:08:31;100259.00;;;31.45;24.24
61900;BME280;47853;55.890;37.664;2022-08-25T09:11:42;100278.63;;;31.22;24.32
61900;BME280;47853;55.890;37.664;2022-08-25T09:14:22;100268.72;;;31.27;23.91
61900;BME280;47853;55.890;37.664;2022-08-25T09:17:00;100263.09;;;30.42;24.30
61900;BME280;47853;55.890;37.664;2022-08-25T09:20:08;100247.44;;;30.52;23.93
61900;BME280;47853;55.890;37.664;2022-08-25T09:28:41;100254.56;;;33.00;21.78
61900;BME280;47853;55.890;37.664;2022-08-25T09:31:25;100250.56;;;32.68;22.24
61900;BME280;47853;55.890;37.664;2022-08-25T09:33:55;100254.41;;;33.10;21.30
61900;BME280;47853;55.890;37.664;2022-08-25T09:36:21;100248.88;;;32.53;22.46
61900;BME280;47853;55.890;37.664;2022-08-25T09:38:47;100251.81;;;33.00;21.77
61900;BME280;47853;55.890;37.664;2022-08-25T09:41:15;100245.59;;;32.70;22.52
61900;BME280;47853;55.890;37.664;2022-08-25T09:43:43;100226.06;;;33.29;21.73
61900;BME280;47853;55.890;37.664;2022-08-25T09:46:23;100245.84;;;35.27;19.72
61900;BME280;47853;55.890;37.664;2022-08-25T09:48:51;100245.44;;;35.97;19.22
61900;BME280;47853;55.890;37.664;2022-08-25T09:56:13;100215.56;;;33.78;21.09
61900;BME280;47853;55.890;37.664;2022-08-25T09:58:39;100230.66;;;33.34;22.15
61900;BME280;47853;55.890;37.664;2022-08-25T10:01:11;100230.06;;;32.41;22.89
61900;BME280;47853;55.890;37.664;2022-08-25T10:03:43;100223.19;;;32.14;23.36
61900;BME280;47853;55.890;37.664;2022-08-25T10:06:16;100211.59;;;33.37;21.66
61900;BME280;47853;55.890;37.664;2022-08-25T10:11:10;100223.28;;;33.48;22.28
61900;BME280;47853;55.890;37.664;2022-08-25T10:13:47;100226.44;;;34.59;21.04
61900;BME280;47853;55.890;37.664;2022-08-25T10:16:23;100205.41;;;33.79;21.83
61900;BME280;47853;55.890;37.664;2022-08-25T10:21:37;100215.34;;;32.32;23.37
61900;BME280;47853;55.890;37.664;2022-08-25T10:24:06;100220.31;;;32.00;23.51
61900;BME280;47853;55.890;37.664;2022-08-25T10:26:36;100209.91;;;32.21;23.54
61900;BME280;47853;55.890;37.664;2022-08-25T10:31:52;100211.25;;;34.05;21.76
61900;BME280;47853;55.890;37.664;2022-08-25T10:37:22;100185.72;;;33.38;22.07
61900;BME280;47853;55.890;37.664;2022-08-25T10:46:06;100190.00;;;34.34;20.77
61900;BME280;47853;55.890;37.664;2022-08-25T10:48:57;100189.44;;;35.65;19.09
61900;BME280;47853;55.890;37.664;2022-08-25T10:51:35;100191.16;;;35.92;18.42
61900;BME280;47853;55.890;37.664;2022-08-25T11:00:16;100137.41;;;35.58;18.40
61900;BME280;47853;55.890;37.664;2022-08-25T11:10:50;100162.63;;;32.05;22.71
61900;BME280;47853;55.890;37.664;2022-08-25T11:16:05;100166.28;;;35.29;18.81
61900;BME280;47853;55.890;37.664;2022-08-25T11:18:33;100140.88;;;36.39;17.89
61900;BME280;47853;55.890;37.664;2022-08-25T11:21:09;100157.78;;;36.29;18.04
61900;BME280;47853;55.890;37.664;2022-08-25T11:23:52;100139.56;;;35.70;18.32
61900;BME280;47853;55.890;37.664;2022-08-25T11:26:26;100135.72;;;35.80;18.82
61900;BME280;47853;55.890;37.664;2022-08-25T11:29:11;100140.94;;;35.50;18.85
61900;BME280;47853;55.890;37.664;2022-08-25T11:31:43;100138.91;;;36.93;17.88
61900;BME280;47853;55.890;37.664;2022-08-25T11:34:12;100149.19;;;34.95;19.24
61900;BME280;47853;55.890;37.664;2022-08-25T11:36:38;100128.91;;;35.86;18.24
61900;BME280;47853;55.890;37.664;2022-08-25T11:39:58;100138.28;;;35.13;18.94
61900;BME280;47853;55.890;37.664;2022-08-25T11:50:30;100122.53;;;34.68;19.33
61900;BME280;47853;55.890;37.664;2022-08-25T11:53:21;100139.13;;;34.40;19.05
61900;BME280;47853;55.890;37.664;2022-08-25T11:55:51;100128.03;;;33.33;20.20
61900;BME280;47853;55.890;37.664;2022-08-25T12:00:54;100110.59;;;32.72;21.29
61900;BME280;47853;55.890;37.664;2022-08-25T12:06:28;100115.44;;;31.98;21.88
61900;BME280;47853;55.890;37.664;2022-08-25T12:29:52;100100.19;;;32.30;22.17
61900;BME280;47853;55.890;37.664;2022-08-25T12:32:43;100097.44;;;32.30;22.23
61900;BME280;47853;55.890;37.664;2022-08-25T12:37:59;100093.63;;;32.07;22.32
61900;BME280;47853;55.890;37.664;2022-08-25T12:40:52;100098.00;;;32.32;22.65
61900;BME280;47853;55.890;37.664;2022-08-25T12:45:51;100092.19;;;33.52;21.03
61900;BME280;47853;55.890;37.664;2022-08-25T12:51:04;100086.72;;;35.22;19.33
61900;BME280;47853;55.890;37.664;2022-08-25T12:56:29;100081.91;;;34.23;21.13
61900;BME280;47853;55.890;37.664;2022-08-25T13:06:59;100058.53;;;33.55;21.15
61900;BME280;47853;55.890;37.664;2022-08-25T13:12:15;100071.78;;;35.55;19.52
61900;BME280;47853;55.890;37.664;2022-08-25T13:14:42;100060.91;;;35.59;19.55
61900;BME280;47853;55.890;37.664;2022-08-25T13:17:08;100069.13;;;34.04;21.11
61900;BME280;47853;55.890;37.664;2022-08-25T13:19:34;100067.69;;;34.44;20.80
61900;BME280;47853;55.890;37.664;2022-08-25T13:22:03;100050.84;;;33.80;21.04
61900;BME280;47853;55.890;37.664;2022-08-25T13:24:35;100071.66;;;34.51;20.53
61900;BME280;47853;55.890;37.664;2022-08-25T13:27:07;100035.06;;;34.23;20.67
61900;BME280;47853;55.890;37.664;2022-08-25T13:29:36;100051.00;;;34.26;20.84
61900;BME280;47853;55.890;37.664;2022-08-25T13:32:26;100057.56;;;34.53;20.69
61900;BME280;47853;55.890;37.664;2022-08-25T13:35:26;100045.66;;;33.93;21.35
61900;BME280;47853;55.890;37.664;2022-08-25T13:37:52;100053.50;;;35.05;19.97
61900;BME280;47853;55.890;37.664;2022-08-25T13:40:23;100056.47;;;34.85;20.37
61900;BME280;47853;55.890;37.664;2022-08-25T13:42:51;100034.56;;;35.52;19.03
61900;BME280;47853;55.890;37.664;2022-08-25T13:45:21;100042.91;;;35.88;18.75
61900;BME280;47853;55.890;37.664;2022-08-25T13:47:48;100041.91;;;35.57;19.52
61900;BME280;47853;55.890;37.664;2022-08-25T13:55:38;100030.94;;;36.19;18.55
61900;BME280;47853;55.890;37.664;2022-08-25T13:58:11;100043.25;;;35.86;19.21
61900;BME280;47853;55.890;37.664;2022-08-25T14:01:04;100028.31;;;35.38;19.66
61900;BME280;47853;55.890;37.664;2022-08-25T14:03:49;100024.00;;;34.82;20.58
61900;BME280;47853;55.890;37.664;2022-08-25T14:08:42;100008.22;;;35.37;19.68
61900;BME280;47853;55.890;37.664;2022-08-25T14:13:36;100016.31;;;35.34;19.79
61900;BME280;47853;55.890;37.664;2022-08-25T14:16:22;100017.09;;;34.94;20.81
61900;BME280;47853;55.890;37.664;2022-08-25T14:18:53;100015.50;;;34.70;20.51
61900;BME280;47853;55.890;37.664;2022-08-25T14:21:24;100013.31;;;34.35;20.70
61900;BME280;47853;55.890;37.664;2022-08-25T14:23:51;100012.84;;;34.19;20.91
61900;BME280;47853;55.890;37.664;2022-08-25T14:26:17;100009.84;;;35.07;20.41
61900;BME280;47853;55.890;37.664;2022-08-25T14:28:42;100018.88;;;34.67;20.58
61900;BME280;47853;55.890;37.664;2022-08-25T14:31:12;99990.13;;;33.49;21.38
61900;BME280;47853;55.890;37.664;2022-08-25T14:36:23;99998.03;;;32.47;22.91
61900;BME280;47853;55.890;37.664;2022-08-25T14:38:49;100009.25;;;31.93;23.83
61900;BME280;47853;55.890;37.664;2022-08-25T14:41:15;99992.53;;;32.28;23.78
61900;BME280;47853;55.890;37.664;2022-08-25T14:43:40;99983.63;;;32.17;23.78
61900;BME280;47853;55.890;37.664;2022-08-25T14:46:12;99984.13;;;32.19;24.43
61900;BME280;47853;55.890;37.664;2022-08-25T14:48:41;100000.47;;;32.30;23.76
61900;BME280;47853;55.890;37.664;2022-08-25T14:51:09;99996.41;;;31.64;24.25
61900;BME280;47853;55.890;37.664;2022-08-25T14:53:36;100003.19;;;31.29;24.77
61900;BME280;47853;55.890;37.664;2022-08-25T14:56:01;99982.81;;;31.35;24.68
61900;BME280;47853;55.890;37.664;2022-08-25T14:58:27;99985.94;;;31.23;24.72
61900;BME280;47853;55.890;37.664;2022-08-25T15:00:52;99990.97;;;31.40;24.74
61900;BME280;47853;55.890;37.664;2022-08-25T15:03:31;99987.28;;;31.50;24.95
61900;BME280;47853;55.890;37.664;2022-08-25T15:05:59;99986.63;;;31.58;24.60
61900;BME280;47853;55.890;37.664;2022-08-25T15:08:25;99962.06;;;31.48;25.15
61900;BME280;47853;55.890;37.664;2022-08-25T15:10:50;99985.00;;;31.57;24.95
61900;BME280;47853;55.890;37.664;2022-08-25T15:13:16;99947.38;;;31.58;24.68
61900;BME280;47853;55.890;37.664;2022-08-25T15:15:43;99935.31;;;31.10;25.29
61900;BME280;47853;55.890;37.664;2022-08-25T15:18:08;99980.09;;;31.54;24.88
61900;BME280;47853;55.890;37.664;2022-08-25T15:20:34;99977.84;;;31.37;25.59
61900;BME280;47853;55.890;37.664;2022-08-25T15:22:59;99968.75;;;31.61;25.04
61900;BME280;47853;55.890;37.664;2022-08-25T15:25:25;99977.72;;;31.66;25.36
61900;BME280;47853;55.890;37.664;2022-08-25T15:27:50;99972.59;;;31.60;24.63
61900;BME280;47853;55.890;37.664;2022-08-25T15:30:16;99972.75;;;31.25;25.22
61900;BME280;47853;55.890;37.664;2022-08-25T15:32:44;99980.72;;;31.27;25.21